Time;durP1;ratioP1;P1;durP2;ratioP2;P2;SDS_P1;SDS_P2;PMS_P1;PMS_P2;Temp;Humidity;BMP_temperature;BMP_pressure;BME280_temperature;BME280_humidity;BME280_pressure;Samples;Min_cycle;Max_cycle;Signal;HPM_P1;HPM_P2
2022/12/21 00:00:11;;;;;;;26.30;15.37;;;3.20;99.90;;;3.07;69.78;100264.78;5033538;28;20230;-66
2022/12/21 00:02:40;;;;;;;26.40;15.73;;;3.20;99.90;;;3.01;69.63;100268.03;5026459;28;20671;-67
2022/12/21 00:05:09;;;;;;;28.73;16.37;;;3.20;99.90;;;2.97;69.99;100261.16;5026171;28;20278;-66
2022/12/21 00:07:38;;;;;;;27.37;16.17;;;3.10;99.90;;;2.97;69.60;100257.75;5029238;28;20578;-68
2022/12/21 00:10:10;;;;;;;25.47;15.50;;;3.10;99.90;;;2.96;70.06;100250.94;5031390;28;20206;-68
2022/12/21 00:12:38;;;;;;;25.67;14.97;;;3.10;99.90;;;2.91;70.35;100243.22;5028532;28;20260;-67
2022/12/21 00:15:09;;;;;;;23.93;14.97;;;3.10;99.90;;;2.88;70.28;100244.00;5030852;28;20575;-68
2022/12/21 00:17:37;;;;;;;29.70;16.83;;;3.10;99.90;;;2.86;69.66;100240.53;5032891;28;20199;-68
2022/12/21 00:20:13;;;;;;;28.50;15.60;;;3.10;99.90;;;2.82;69.84;100233.66;5031853;28;20550;-67
2022/12/21 00:22:42;;;;;;;27.50;16.27;;;3.00;99.90;;;2.83;70.10;100244.69;5019388;28;20664;-68
2022/12/21 00:25:12;;;;;;;28.47;16.50;;;3.00;99.90;;;2.83;69.93;100245.56;5028896;28;20238;-67
2022/12/21 00:27:40;;;;;;;24.90;15.33;;;3.00;99.90;;;2.81;69.71;100247.22;5031253;28;20807;-68
2022/12/21 00:30:10;;;;;;;25.67;15.63;;;3.00;99.90;;;2.82;70.19;100248.94;5026826;28;20655;-67
2022/12/21 00:32:39;;;;;;;28.77;15.60;;;3.00;99.90;;;2.81;69.50;100252.31;5030698;28;20286;-66
2022/12/21 00:35:08;;;;;;;27.73;16.17;;;3.00;99.90;;;2.83;70.02;100244.69;5029996;28;20213;-67
2022/12/21 00:37:36;;;;;;;27.63;15.57;;;3.00;99.90;;;2.84;70.20;100249.00;5023864;28;20660;-66
2022/12/21 00:40:07;;;;;;;27.73;15.30;;;3.00;99.90;;;2.83;70.24;100243.00;5031774;28;20206;-67
2022/12/21 00:42:37;;;;;;;26.50;15.27;;;3.00;99.90;;;2.84;70.15;100244.75;5027574;28;20207;-66
2022/12/21 00:45:07;;;;;;;27.77;16.00;;;3.00;99.90;;;2.84;69.11;100247.31;5027370;28;20210;-70
2022/12/21 00:47:36;;;;;;;24.00;14.63;;;3.00;99.90;;;2.83;69.46;100245.56;5032627;28;20578;-70
2022/12/21 00:50:06;;;;;;;27.37;15.37;;;3.00;99.90;;;2.84;68.98;100252.38;5021808;28;20246;-67
2022/12/21 00:52:34;;;;;;;27.53;14.63;;;3.00;99.90;;;2.88;69.40;100264.34;5018204;28;20208;-66
2022/12/21 00:55:03;;;;;;;25.63;14.57;;;3.10;99.90;;;2.86;69.15;100255.81;5027353;28;20207;-67
2022/12/21 00:57:32;;;;;;;25.10;15.33;;;3.10;99.90;;;2.90;69.61;100257.59;5024508;28;20214;-70
2022/12/21 01:00:02;;;;;;;25.90;14.67;;;3.10;99.90;;;2.90;68.96;100257.59;5026003;28;20227;-65
2022/12/21 01:02:31;;;;;;;24.53;14.70;;;3.10;99.90;;;2.92;69.77;100249.16;5030880;28;20218;-67
2022/12/21 01:05:01;;;;;;;28.57;15.47;;;3.10;99.90;;;2.93;68.87;100256.81;5021683;28;20235;-67
2022/12/21 01:07:30;;;;;;;29.20;15.73;;;3.10;99.90;;;2.94;69.11;100252.59;5024413;28;20214;-68
2022/12/21 01:09:58;;;;;;;22.00;14.50;;;3.10;99.90;;;2.93;68.77;100235.59;5031999;28;20308;-67
2022/12/21 01:12:27;;;;;;;24.80;15.20;;;3.10;99.90;;;2.94;68.54;100232.22;5031102;28;20203;-66
2022/12/21 01:14:55;;;;;;;25.93;15.03;;;3.10;99.90;;;2.94;69.01;100224.59;5031640;28;20199;-68
2022/12/21 01:17:25;;;;;;;26.90;15.40;;;3.10;99.90;;;2.93;68.51;100225.41;5025591;28;20210;-67
2022/12/21 01:19:53;;;;;;;25.93;14.83;;;3.10;99.90;;;2.89;68.60;100222.81;5023073;28;20203;-68
2022/12/21 01:22:22;;;;;;;25.23;15.43;;;3.10;99.90;;;2.86;68.74;100225.28;5027283;28;20280;-67
2022/12/21 01:24:50;;;;;;;25.37;15.13;;;3.10;99.90;;;2.86;68.48;100250.72;5022224;28;20285;-66
2022/12/21 01:27:20;;;;;;;26.63;15.33;;;3.10;99.90;;;2.87;69.30;100256.66;5031305;28;20210;-68
2022/12/21 01:29:48;;;;;;;27.23;15.50;;;3.10;99.90;;;2.85;69.35;100259.19;5031813;28;20269;-66
2022/12/21 01:32:17;;;;;;;24.70;14.47;;;3.10;99.90;;;2.83;69.66;100265.91;5027541;28;20620;-68
2022/12/21 01:34:47;;;;;;;24.30;14.77;;;3.10;99.90;;;2.85;68.51;100269.38;5027235;28;20210;-68
2022/12/21 01:37:15;;;;;;;24.40;14.73;;;3.00;99.90;;;2.86;68.85;100265.13;5031813;28;20218;-68
2022/12/21 01:39:46;;;;;;;26.53;15.60;;;3.10;99.90;;;2.87;69.33;100262.66;5017816;28;20202;-65
2022/12/21 01:42:14;;;;;;;24.60;14.73;;;3.10;99.90;;;2.88;68.95;100255.88;5025424;28;20195;-66
2022/12/21 01:45:14;;;;;;;24.30;15.17;;;3.10;99.90;;;2.86;68.78;100239.69;5024016;28;20268;-66
2022/12/21 01:47:48;;;;;;;27.00;14.43;;;3.10;99.90;;;2.86;68.86;100229.50;5030271;28;20631;-66
2022/12/21 01:50:43;;;;;;;26.97;15.00;;;3.10;99.90;;;2.80;68.61;100209.91;5022669;28;20234;-67
2022/12/21 01:53:17;;;;;;;30.17;15.50;;;3.00;99.90;;;2.78;68.48;100197.94;5027983;28;20290;-68
2022/12/21 01:55:49;;;;;;;24.17;14.50;;;3.00;99.90;;;2.74;69.51;100197.03;5020329;28;20260;-68
2022/12/21 01:58:19;;;;;;;26.53;14.80;;;3.00;99.90;;;2.72;69.70;100207.97;5028145;28;20206;-68
2022/12/21 02:00:48;;;;;;;23.07;14.40;;;3.00;99.90;;;2.68;69.45;100176.53;5031231;28;20265;-68
2022/12/21 02:03:23;;;;;;;25.10;14.63;;;2.90;99.90;;;2.65;69.58;100184.97;5026793;28;20679;-69
2022/12/21 02:05:59;;;;;;;26.77;15.00;;;2.90;99.90;;;2.63;70.09;100165.41;5025350;28;20587;-68
2022/12/21 02:08:28;;;;;;;24.37;15.37;;;2.90;99.90;;;2.63;69.60;100165.41;5030698;28;20199;-69
2022/12/21 02:10:59;;;;;;;27.67;15.70;;;2.90;99.90;;;2.63;70.40;100170.47;5030613;28;20222;-68
2022/12/21 02:13:28;;;;;;;26.77;15.43;;;2.80;99.90;;;2.61;70.79;100169.56;5029196;28;20203;-69
2022/12/21 02:16:14;;;;;;;25.40;15.30;;;2.90;99.90;;;2.60;70.00;100163.63;5029653;28;20194;-69
2022/12/21 02:19:45;;;;;;;24.73;13.77;;;2.90;99.90;;;2.60;70.03;100150.06;5024166;28;20199;-68
2022/12/21 02:22:24;;;;;;;23.13;15.27;;;2.90;99.90;;;2.62;70.63;100148.44;5028208;28;20566;-67
2022/12/21 02:25:29;;;;;;;26.63;15.67;;;2.80;99.90;;;2.59;70.60;100163.63;5023881;28;20736;-68
2022/12/21 02:28:34;;;;;;;26.00;15.17;;;2.80;99.90;;;2.57;70.93;100178.81;5017933;28;20238;-67
2022/12/21 02:31:22;;;;;;;28.83;15.50;;;2.80;99.90;;;2.56;70.73;100172.03;5022817;28;20234;-67
2022/12/21 02:34:03;;;;;;;29.13;16.30;;;2.80;99.90;;;2.58;71.17;100178.03;5023733;28;20245;-69
2022/12/21 02:36:45;;;;;;;27.57;15.40;;;2.80;99.90;;;2.60;71.02;100190.75;5029968;28;20214;-67
2022/12/21 02:39:25;;;;;;;27.97;15.80;;;2.80;99.90;;;2.60;71.13;100176.34;5029237;28;20211;-69
2022/12/21 02:42:03;;;;;;;25.20;15.10;;;2.80;99.90;;;2.60;71.26;100165.31;5025066;28;20224;-69
2022/12/21 02:44:45;;;;;;;25.90;16.00;;;2.80;99.90;;;2.59;70.15;100163.63;5025635;28;20202;-67
2022/12/21 02:47:20;;;;;;;26.30;15.67;;;2.80;99.90;;;2.61;70.90;100156.84;5029331;28;20198;-68
2022/12/21 02:49:58;;;;;;;26.10;15.70;;;2.90;99.90;;;2.63;69.93;100156.06;5033042;28;20360;-76
2022/12/21 02:52:35;;;;;;;33.97;16.27;;;2.90;99.90;;;2.64;70.12;100164.56;5032055;28;20206;-77
2022/12/21 02:55:05;;;;;;;27.10;16.23;;;2.90;99.90;;;2.66;70.46;100183.28;5032670;28;20186;-76
2022/12/21 02:57:36;;;;;;;26.43;14.93;;;2.90;99.90;;;2.66;70.42;100191.75;5027697;28;20679;-76
2022/12/21 03:00:09;;;;;;;28.53;16.47;;;2.90;99.90;;;2.70;70.17;100205.41;5027722;28;20237;-78
2022/12/21 03:06:21;;;;;;;27.67;15.13;;;2.90;99.90;;;2.73;70.26;100197.00;5010963;28;20214;-74
2022/12/21 03:09:06;;;;;;;25.30;16.13;;;2.90;99.90;;;2.71;69.80;100179.13;5032651;28;20191;-74
2022/12/21 03:11:45;;;;;;;25.67;14.60;;;2.90;99.90;;;2.73;69.95;100167.31;5021222;28;20207;-77
2022/12/21 03:14:26;;;;;;;28.03;15.33;;;2.90;99.90;;;2.74;70.30;100169.03;5029091;28;20656;-76
2022/12/21 03:17:05;;;;;;;27.07;15.27;;;2.90;99.90;;;2.73;70.17;100161.38;5031996;28;20655;-77
2022/12/21 03:19:46;;;;;;;27.43;16.63;;;2.90;99.90;;;2.75;69.91;100173.28;5027304;28;20203;-64
2022/12/21 03:22:23;;;;;;;26.07;15.80;;;2.90;99.90;;;2.76;69.84;100176.69;5028686;28;20634;-66
2022/12/21 03:25:00;;;;;;;26.43;15.70;;;3.00;99.90;;;2.75;69.76;100175.84;5031792;28;20725;-64
2022/12/21 03:27:35;;;;;;;26.40;15.93;;;3.00;99.90;;;2.78;69.94;100173.38;5030505;28;20238;-68
2022/12/21 03:30:09;;;;;;;25.30;15.70;;;3.00;99.90;;;2.79;69.86;100172.53;5019520;28;20593;-68
2022/12/21 03:32:42;;;;;;;25.57;15.40;;;3.00;99.90;;;2.80;69.29;100179.34;5030536;28;20206;-68
2022/12/21 03:35:27;;;;;;;24.43;15.27;;;3.00;99.90;;;2.81;69.37;100170.03;5030885;28;20202;-67
2022/12/21 03:37:57;;;;;;;28.43;16.00;;;3.00;99.90;;;2.81;69.37;100173.44;5030265;28;20191;-67
2022/12/21 03:40:29;;;;;;;26.87;16.90;;;3.00;99.90;;;2.83;69.91;100165.81;5031420;28;20210;-67
2022/12/21 03:43:03;;;;;;;25.20;15.93;;;3.00;99.90;;;2.81;69.62;100170.91;5026527;28;20202;-67
2022/12/21 03:45:37;;;;;;;26.40;15.73;;;3.00;99.90;;;2.83;69.85;100159.03;5037238;28;20252;-66
2022/12/21 03:48:11;;;;;;;27.57;15.30;;;3.00;99.90;;;2.82;69.49;100162.41;5030352;28;20266;-66
2022/12/21 03:50:47;;;;;;;27.80;15.80;;;3.00;99.90;;;2.82;69.49;100142.06;5018034;28;20747;-66
2022/12/21 03:53:30;;;;;;;24.97;15.97;;;3.00;99.90;;;2.84;69.29;100134.47;5030950;28;20210;-68
2022/12/21 03:56:05;;;;;;;26.27;15.00;;;3.00;99.90;;;2.82;69.32;100126.81;5029819;28;20206;-67
2022/12/21 03:58:35;;;;;;;27.77;16.17;;;3.00;99.90;;;2.83;69.14;100122.56;5030788;28;20619;-68
2022/12/21 04:01:17;;;;;;;28.10;16.43;;;3.00;99.90;;;2.81;68.70;100124.22;5021413;28;20235;-66
2022/12/21 04:03:51;;;;;;;27.07;16.50;;;3.00;99.90;;;2.80;69.44;100097.94;5029484;28;20210;-66
2022/12/21 04:06:26;;;;;;;27.00;15.43;;;3.00;99.90;;;2.81;68.95;100093.69;5030797;28;20217;-65
2022/12/21 04:08:56;;;;;;;25.73;15.93;;;3.00;99.90;;;2.80;69.08;100087.75;5030716;28;20252;-67
2022/12/21 04:14:10;;;;;;;29.27;15.97;;;3.00;99.90;;;2.79;69.03;100064.81;5030570;28;20210;-66
2022/12/21 04:16:39;;;;;;;28.30;16.43;;;3.00;99.90;;;2.76;69.53;100059.66;5029041;28;20210;-65
2022/12/21 04:21:55;;;;;;;30.97;16.50;;;3.00;99.90;;;2.77;68.96;100080.06;5021848;28;20245;-70
2022/12/21 04:29:56;;;;;;;30.40;17.07;;;2.90;99.90;;;2.72;69.02;100103.69;5026162;28;20538;-73
2022/12/21 04:32:25;;;;;;;28.27;16.67;;;2.90;99.90;;;2.69;69.67;100104.50;5023109;28;20258;-75
2022/12/21 04:34:54;;;;;;;30.60;17.57;;;2.90;99.90;;;2.67;69.28;100111.22;5029105;28;20240;-76
2022/12/21 04:37:32;;;;;;;28.20;15.90;;;2.90;99.90;;;2.64;69.99;100113.69;5030237;28;20280;-73
2022/12/21 04:40:03;;;;;;;28.13;15.90;;;2.80;99.90;;;2.60;69.72;100109.38;5025827;28;20273;-75
2022/12/21 04:42:31;;;;;;;30.20;17.40;;;2.80;99.90;;;2.60;69.75;100109.38;5026731;28;20202;-75
2022/12/21 04:45:00;;;;;;;25.50;16.03;;;2.80;99.90;;;2.60;70.17;100101.72;5034520;28;20211;-76
2022/12/21 04:47:28;;;;;;;34.87;17.87;;;2.80;99.90;;;2.56;69.69;100108.44;5031135;28;20211;-75
2022/12/21 04:49:57;;;;;;;31.97;16.83;;;2.80;99.90;;;2.56;69.63;100097.41;5026996;28;20717;-77
2022/12/21 04:52:27;;;;;;;30.23;17.07;;;2.70;99.90;;;2.57;69.95;100099.13;5031309;28;20208;-76
2022/12/21 04:54:56;;;;;;;27.57;16.10;;;2.80;99.90;;;2.56;69.94;100097.41;5018224;28;20246;-70
2022/12/21 04:57:25;;;;;;;30.90;17.67;;;2.80;99.90;;;2.54;70.26;100094.84;5032376;28;20682;-71
2022/12/21 04:59:53;;;;;;;29.33;15.83;;;2.80;99.90;;;2.56;69.91;100088.09;5023117;28;20227;-72
2022/12/21 05:02:22;;;;;;;30.40;17.40;;;2.70;99.90;;;2.54;70.09;100091.41;5028422;28;20210;-77
2022/12/21 05:04:51;;;;;;;30.73;18.07;;;2.80;99.90;;;2.52;69.66;100101.56;5035229;28;20207;-75
2022/12/21 05:07:19;;;;;;;29.27;17.07;;;2.70;99.90;;;2.50;70.16;100089.63;5032950;28;20678;-77
2022/12/21 05:09:49;;;;;;;32.77;17.00;;;2.70;99.90;;;2.53;69.94;100107.50;5030729;28;20630;-76
2022/12/21 05:12:18;;;;;;;27.97;15.70;;;2.70;99.90;;;2.50;70.32;100092.19;5030889;28;20249;-75
2022/12/21 05:14:46;;;;;;;31.37;17.60;;;2.80;99.90;;;2.48;69.88;100073.50;5035755;28;20663;-67
2022/12/21 05:17:15;;;;;;;31.90;16.80;;;2.70;99.90;;;2.48;69.98;100070.97;5034586;28;20211;-66
2022/12/21 05:19:46;;;;;;;30.27;17.33;;;2.70;99.90;;;2.44;70.34;100077.66;5032901;28;20206;-67
2022/12/21 05:22:16;;;;;;;26.67;16.20;;;2.70;99.90;;;2.42;70.03;100070.00;5031701;28;20264;-78
2022/12/21 05:24:45;;;;;;;29.23;17.03;;;2.60;99.90;;;2.40;70.69;100063.19;5035111;28;20329;-76
2022/12/21 05:27:15;;;;;;;30.67;17.33;;;2.60;99.90;;;2.35;70.13;100064.75;5035098;28;20218;-76
2022/12/21 05:29:45;;;;;;;29.20;16.87;;;2.60;99.90;;;2.33;70.67;100064.72;5027342;28;20200;-78
2022/12/21 05:32:14;;;;;;;29.27;16.67;;;2.50;99.90;;;2.31;70.58;100071.44;5021960;28;20681;-77
2022/12/21 05:34:42;;;;;;;28.63;16.70;;;2.50;99.90;;;2.26;70.64;100055.25;5033638;28;20207;-75
2022/12/21 05:37:11;;;;;;;28.83;16.97;;;2.50;99.90;;;2.24;71.17;100059.41;5027767;28;20214;-76
2022/12/21 05:39:42;;;;;;;29.47;17.03;;;2.50;99.90;;;2.22;71.39;100045.84;5031826;28;20206;-77
2022/12/21 05:42:11;;;;;;;30.80;16.57;;;2.50;99.90;;;2.22;70.93;100060.22;5029511;28;20237;-74
2022/12/21 05:44:40;;;;;;;32.03;17.20;;;2.50;99.90;;;2.26;71.55;100055.25;5030859;28;20565;-71
2022/12/21 05:47:09;;;;;;;30.10;17.43;;;2.50;99.90;;;2.26;71.36;100051.84;5030476;28;20701;-69
2022/12/21 05:49:37;;;;;;;32.37;17.37;;;2.50;99.90;;;2.28;71.36;100076.44;5028922;28;20558;-67
2022/12/21 05:52:06;;;;;;;31.13;17.53;;;2.50;99.90;;;2.27;71.10;100082.38;5029853;28;20219;-67
2022/12/21 05:54:34;;;;;;;33.87;18.47;;;2.50;99.90;;;2.31;71.52;100096.88;5023299;28;20213;-66
2022/12/21 05:57:03;;;;;;;32.03;18.37;;;2.50;99.90;;;2.32;71.17;100098.59;5030568;28;20276;-70
2022/12/21 05:59:34;;;;;;;31.90;18.13;;;2.60;99.90;;;2.35;70.99;100111.34;5024094;28;20222;-70
2022/12/21 06:02:03;;;;;;;32.33;17.57;;;2.60;99.90;;;2.36;71.46;100099.53;5024714;28;20676;-72
2022/12/21 06:04:32;;;;;;;31.20;17.13;;;2.60;99.90;;;2.36;71.50;100104.63;5026594;28;20207;-72
2022/12/21 06:07:01;;;;;;;31.10;18.00;;;2.60;99.90;;;2.37;70.74;100102.09;5028322;28;20587;-69
2022/12/21 06:09:30;;;;;;;30.03;17.53;;;2.60;99.90;;;2.38;71.10;100093.63;5024246;28;20578;-74
2022/12/21 06:11:58;;;;;;;30.67;17.00;;;2.60;99.90;;;2.38;70.83;100102.94;5031573;28;20231;-73
2022/12/21 06:14:27;;;;;;;32.37;17.93;;;2.60;99.90;;;2.37;70.67;100119.91;5031655;28;20207;-74
2022/12/21 06:16:55;;;;;;;29.77;16.70;;;2.60;99.90;;;2.40;70.56;100121.66;5035542;28;20743;-69
2022/12/21 06:19:25;;;;;;;29.07;16.13;;;2.60;99.90;;;2.41;70.38;100126.75;5043002;28;20186;-71
2022/12/21 06:21:54;;;;;;;31.57;16.50;;;2.60;99.90;;;2.45;70.34;100114.13;5051668;28;20227;-71
2022/12/21 06:24:22;;;;;;;27.37;15.90;;;2.60;99.90;;;2.44;70.42;100109.88;5041702;28;20658;-71
2022/12/21 06:26:51;;;;;;;29.00;16.77;;;2.60;99.90;;;2.42;71.16;100112.34;5021229;28;20202;-72
2022/12/21 06:29:19;;;;;;;28.90;15.93;;;2.60;99.90;;;2.41;70.43;100103.88;5030594;28;20230;-69
2022/12/21 06:31:48;;;;;;;33.43;17.70;;;2.60;99.90;;;2.38;70.38;100108.03;5023811;28;20215;-68
2022/12/21 06:34:17;;;;;;;28.57;15.73;;;2.60;99.90;;;2.39;70.80;100118.25;5029644;28;20238;-67
2022/12/21 06:36:47;;;;;;;30.43;16.43;;;2.50;99.90;;;2.38;70.69;100113.97;5022589;28;20199;-67
2022/12/21 06:39:15;;;;;;;30.57;17.17;;;2.60;99.90;;;2.42;71.16;100125.94;5028586;28;20686;-66
2022/12/21 06:41:44;;;;;;;27.93;15.80;;;2.60;99.90;;;2.43;71.32;100126.81;5029615;28;20202;-68
2022/12/21 06:44:13;;;;;;;31.60;17.03;;;2.60;99.90;;;2.45;70.38;100135.31;5024296;28;20217;-65
2022/12/21 06:46:41;;;;;;;25.87;15.80;;;2.70;99.90;;;2.45;71.09;100125.16;5024832;28;20217;-69
2022/12/21 06:49:11;;;;;;;27.87;15.67;;;2.70;99.90;;;2.48;70.83;100126.91;5026663;28;20230;-66
2022/12/21 06:51:40;;;;;;;29.00;16.53;;;2.70;99.90;;;2.49;70.25;100121.84;5024346;28;20761;-67
2022/12/21 06:54:11;;;;;;;25.93;16.73;;;2.70;99.90;;;2.51;70.52;100114.28;5025062;28;20198;-68
2022/12/21 06:56:40;;;;;;;28.07;16.37;;;2.70;99.90;;;2.53;70.56;100113.47;5017331;28;20706;-69
2022/12/21 06:59:08;;;;;;;29.07;16.20;;;2.70;99.90;;;2.56;70.78;100115.22;5022247;28;20212;-67
2022/12/21 07:01:37;;;;;;;29.33;16.53;;;2.70;99.90;;;2.54;70.34;100125.38;5019115;28;20717;-69
2022/12/21 07:04:06;;;;;;;27.23;16.73;;;2.60;99.90;;;2.56;70.00;100108.44;5022211;28;20202;-69
2022/12/21 07:06:34;;;;;;;28.30;17.03;;;2.70;99.90;;;2.56;70.90;100110.13;5025201;28;20659;-68
2022/12/21 07:09:03;;;;;;;27.87;16.53;;;2.70;99.90;;;2.59;70.19;100107.66;5022867;28;20211;-69
2022/12/21 07:11:33;;;;;;;26.73;16.00;;;2.80;99.90;;;2.61;69.94;100100.91;5023514;28;20218;-69
2022/12/21 07:14:02;;;;;;;27.00;15.83;;;2.80;99.90;;;2.61;70.00;100100.91;5024265;28;20207;-70
2022/12/21 07:16:30;;;;;;;26.73;16.00;;;2.80;99.90;;;2.61;70.28;100096.69;5030003;28;20233;-68
2022/12/21 07:18:59;;;;;;;26.83;15.77;;;2.80;99.90;;;2.63;69.36;100091.63;5027553;28;20229;-68
2022/12/21 07:21:28;;;;;;;27.90;16.23;;;2.80;99.90;;;2.64;69.36;100085.72;5027478;28;20207;-71
2022/12/21 07:23:57;;;;;;;26.93;15.00;;;2.90;99.90;;;2.65;69.59;100083.22;5022212;28;20207;-66
2022/12/21 07:26:26;;;;;;;25.87;15.80;;;2.90;99.90;;;2.65;69.57;100077.25;5036178;28;20294;-67
2022/12/21 07:28:56;;;;;;;27.33;16.43;;;2.90;99.90;;;2.69;69.76;100071.41;5051749;28;20648;-68
2022/12/21 07:31:27;;;;;;;28.33;15.37;;;2.90;99.90;;;2.66;69.37;100079.84;5048184;28;20229;-66
2022/12/21 07:33:56;;;;;;;27.47;15.80;;;2.90;99.90;;;2.66;69.76;100068.81;5049000;28;20210;-67
2022/12/21 07:36:25;;;;;;;26.23;15.97;;;2.90;99.90;;;2.67;69.58;100076.47;5044479;28;20210;-68
2022/12/21 07:38:54;;;;;;;26.63;15.60;;;2.90;99.90;;;2.70;68.98;100075.66;5042290;28;20202;-65
2022/12/21 07:41:23;;;;;;;27.93;16.23;;;2.90;99.90;;;2.72;69.09;100076.53;5044624;28;20270;-66
2022/12/21 07:43:52;;;;;;;28.70;16.07;;;3.00;99.90;;;2.71;69.70;100076.53;5046130;28;20240;-67
2022/12/21 07:46:22;;;;;;;28.17;15.87;;;3.00;99.90;;;2.73;69.71;100088.47;5050847;28;20213;-67
2022/12/21 07:48:52;;;;;;;23.97;15.07;;;3.00;99.90;;;2.76;69.38;100093.63;5036787;28;20191;-68
2022/12/21 07:51:20;;;;;;;31.73;15.57;;;3.00;99.90;;;2.80;69.61;100092.84;5045081;28;20242;-70
2022/12/21 07:53:49;;;;;;;25.90;14.33;;;3.00;99.90;;;2.82;69.11;100075.91;5026922;28;20226;-72
2022/12/21 07:56:19;;;;;;;28.63;15.37;;;3.00;99.90;;;2.86;68.86;100082.78;5031017;28;20199;-73
2022/12/21 07:58:48;;;;;;;26.07;14.57;;;3.10;99.90;;;2.90;69.23;100081.16;5024297;28;20221;-72
2022/12/21 08:01:18;;;;;;;26.33;15.20;;;3.10;99.90;;;2.96;69.07;100082.97;5024781;28;20219;-72
2022/12/21 08:03:49;;;;;;;25.57;14.60;;;3.20;99.90;;;2.98;69.03;100083.84;5025016;28;20214;-78
2022/12/21 08:06:18;;;;;;;22.00;14.30;;;3.20;99.90;;;2.96;68.63;100077.88;5030926;28;20218;-74
2022/12/21 08:08:47;;;;;;;30.23;14.37;;;3.20;99.90;;;2.97;68.24;100079.59;5026346;28;20266;-71
2022/12/21 08:11:18;;;;;;;25.97;15.00;;;3.20;99.90;;;2.99;67.93;100077.94;5025350;28;20203;-72
2022/12/21 08:13:47;;;;;;;25.80;14.67;;;3.20;99.90;;;3.00;67.92;100072.88;5040510;28;20230;-71
2022/12/21 08:16:19;;;;;;;25.30;14.37;;;3.20;99.90;;;3.01;68.13;100073.72;5036483;28;20210;-68
2022/12/21 08:18:49;;;;;;;26.43;14.93;;;3.20;99.90;;;3.04;68.29;100076.34;5030342;28;20297;-68
2022/12/21 08:21:18;;;;;;;27.20;15.33;;;3.30;99.90;;;3.06;68.58;100074.69;5032642;28;20207;-68
2022/12/21 08:23:48;;;;;;;23.73;14.50;;;3.30;99.90;;;3.05;68.57;100063.63;5033587;28;20206;-70
2022/12/21 08:26:17;;;;;;;22.97;13.97;;;3.30;99.90;;;3.10;67.56;100056.97;5031984;28;20205;-68
2022/12/21 08:28:47;;;;;;;25.13;14.37;;;3.30;99.90;;;3.12;67.67;100062.06;5036137;28;20290;-68
2022/12/21 08:31:18;;;;;;;26.17;14.83;;;3.30;99.90;;;3.17;68.22;100057.03;5032591;28;20332;-68
2022/12/21 08:33:49;;;;;;;26.67;15.40;;;3.40;99.90;;;3.18;67.83;100058.78;5034905;28;20211;-71
2022/12/21 08:36:22;;;;;;;26.43;14.47;;;3.40;99.90;;;3.18;68.11;100059.63;5030549;28;20260;-69
2022/12/21 08:38:51;;;;;;;25.40;14.73;;;3.40;99.90;;;3.21;67.36;100058.84;5030353;28;20219;-69
2022/12/21 08:41:38;;;;;;;23.50;15.10;;;3.40;99.90;;;3.22;67.29;100055.47;5018357;28;20637;-68
2022/12/21 08:44:07;;;;;;;26.10;15.20;;;3.40;99.90;;;3.20;68.15;100055.41;5029988;28;20210;-68
2022/12/21 08:46:36;;;;;;;23.87;14.80;;;3.40;99.90;;;3.23;67.43;100057.16;5028097;28;20203;-68
2022/12/21 08:49:06;;;;;;;25.07;15.10;;;3.40;99.90;;;3.27;67.59;100059.78;5023199;28;20608;-68
2022/12/21 08:51:37;;;;;;;23.77;13.83;;;3.50;99.90;;;3.30;67.45;100061.53;5026432;28;20257;-68
2022/12/21 08:54:06;;;;;;;26.53;15.30;;;3.50;99.90;;;3.37;67.29;100060.81;5021394;28;20242;-68
2022/12/21 08:56:35;;;;;;;28.00;15.27;;;3.60;99.90;;;3.43;67.25;100065.19;5020462;28;20207;-70
2022/12/21 08:59:06;;;;;;;29.27;15.93;;;3.60;99.90;;;3.49;67.51;100055.09;5023746;28;20203;-67
2022/12/21 09:01:36;;;;;;;28.57;16.30;;;3.70;99.90;;;3.54;66.77;100058.59;5027425;28;20203;-68
2022/12/21 09:04:06;;;;;;;29.00;16.37;;;3.70;99.90;;;3.59;67.42;100042.53;5041818;28;20724;-68
2022/12/21 09:06:35;;;;;;;26.40;15.63;;;3.80;99.90;;;3.65;66.77;100038.38;5032675;28;20207;-67
2022/12/21 09:09:03;;;;;;;26.27;15.40;;;3.80;99.90;;;3.71;66.71;100041.88;5029265;28;20206;-68
2022/12/21 09:11:32;;;;;;;25.30;15.23;;;3.90;99.90;;;3.74;66.05;100028.31;5027384;28;20202;-67
2022/12/21 09:14:14;;;;;;;29.23;16.30;;;3.90;99.90;;;3.80;66.42;100026.75;5033932;28;20222;-68
2022/12/21 09:16:42;;;;;;;24.53;14.50;;;3.90;99.90;;;3.84;66.78;100031.03;5027653;28;20282;-67
2022/12/21 09:19:13;;;;;;;28.83;16.13;;;4.00;99.90;;;3.91;66.62;100023.50;5031230;28;20710;-67
2022/12/21 09:21:42;;;;;;;23.43;15.07;;;4.00;99.90;;;3.94;66.38;100023.53;5030352;28;20268;-66
2022/12/21 09:24:10;;;;;;;27.23;16.00;;;4.10;99.90;;;4.00;66.06;100026.16;5025853;28;20211;-66
2022/12/21 09:26:41;;;;;;;23.93;14.97;;;4.10;99.90;;;4.04;65.89;100031.31;5023499;28;20296;-66
2022/12/21 09:29:10;;;;;;;27.83;14.67;;;4.20;99.90;;;4.09;65.26;100018.66;5027226;28;20218;-64
2022/12/21 09:31:39;;;;;;;25.57;15.60;;;4.30;99.90;;;4.16;65.25;100010.28;5026641;28;20259;-67
2022/12/21 09:34:07;;;;;;;26.07;15.83;;;4.30;99.90;;;4.18;65.42;100008.59;5024185;28;20227;-66
2022/12/21 09:36:37;;;;;;;28.77;16.30;;;4.40;99.90;;;4.19;65.33;100002.63;5025535;28;20210;-66
2022/12/21 09:39:26;;;;;;;27.47;15.43;;;4.40;99.90;;;4.22;65.18;100020.53;5029485;28;20718;-67
2022/12/21 09:42:13;;;;;;;28.43;15.73;;;4.40;99.90;;;4.35;65.56;100022.44;5025741;28;20242;-65
2022/12/21 09:45:10;;;;;;;24.00;15.47;;;4.50;99.90;;;4.50;64.75;100026.00;5025484;28;20199;-69
2022/12/21 09:47:46;;;;;;;28.27;16.13;;;4.60;99.90;;;4.53;64.19;100016.72;5029461;28;20249;-64
2022/12/21 09:50:21;;;;;;;26.70;15.97;;;4.70;99.90;;;4.60;63.62;100015.06;5030603;28;20225;-66
2022/12/21 09:53:01;;;;;;;26.70;15.17;;;4.70;99.90;;;4.64;64.03;100011.72;5024424;28;20247;-65
2022/12/21 09:55:37;;;;;;;26.13;15.47;;;4.80;99.90;;;4.70;64.12;100023.69;5030540;28;20214;-66
2022/12/21 09:58:14;;;;;;;29.73;16.40;;;4.80;99.90;;;4.72;64.03;100010.13;5031170;28;20206;-67
2022/12/21 10:00:46;;;;;;;23.40;14.30;;;4.90;99.90;;;4.73;63.63;100009.28;5020999;28;20595;-69
2022/12/21 10:03:58;;;;;;;26.47;16.03;;;4.80;99.90;;;4.71;63.65;100004.97;5026282;28;20682;-67
2022/12/21 10:06:54;;;;;;;29.33;17.00;;;4.80;99.90;;;4.76;63.59;100011.00;5024671;28;20210;-68
2022/12/21 10:10:06;;;;;;;25.70;15.67;;;4.90;99.90;;;5.01;63.56;100007.88;5025557;28;20539;-66
2022/12/21 10:12:47;;;;;;;25.30;15.57;;;5.10;99.90;;;5.78;64.51;100006.84;5021491;28;20324;-67
2022/12/21 10:15:29;;;;;;;27.67;16.30;;;5.90;99.90;;;7.19;61.77;100007.50;5025753;28;20657;-66
2022/12/21 10:18:13;;;;;;;25.70;14.70;;;7.20;99.90;;;8.44;55.89;99983.44;5040494;28;20233;-67
2022/12/21 10:20:54;;;;;;;23.40;14.20;;;8.40;99.90;;;8.63;52.77;99991.91;5026562;28;20268;-68
2022/12/21 10:23:27;;;;;;;24.53;15.47;;;8.50;99.90;;;8.43;52.60;99996.25;5024105;28;20206;-67
2022/12/21 10:26:03;;;;;;;24.40;15.10;;;8.40;99.90;;;8.11;53.01;99988.66;5031363;28;20206;-67
2022/12/21 10:28:46;;;;;;;25.17;16.03;;;8.20;99.90;;;7.89;53.60;99990.41;5030410;28;20201;-69
2022/12/21 10:31:21;;;;;;;25.40;15.23;;;8.00;99.90;;;7.88;54.51;99986.09;5028791;28;20705;-67
2022/12/21 10:33:55;;;;;;;28.00;16.30;;;7.90;99.90;;;7.88;53.11;99989.56;5029834;28;20318;-68
2022/12/21 10:36:36;;;;;;;26.40;16.23;;;7.90;99.90;;;8.73;54.44;99985.03;5027869;28;20264;-70
2022/12/21 10:39:05;;;;;;;24.30;16.23;;;8.80;99.90;;;9.82;51.68;99979.94;5029381;28;20556;-68
2022/12/21 10:41:40;;;;;;;25.57;15.97;;;9.80;99.90;;;11.02;49.44;99973.38;5028724;28;20245;-68
2022/12/21 10:44:12;;;;;;;23.37;14.83;;;11.00;99.90;;;12.35;45.12;99962.53;5029820;28;20671;-67
2022/12/21 10:46:41;;;;;;;24.50;15.67;;;12.00;99.90;;;12.92;43.83;99954.38;5044536;28;20210;-68
2022/12/21 10:49:22;;;;;;;23.73;14.70;;;12.60;99.90;;;12.90;42.08;99956.19;5026492;28;20315;-67